Time;durP1;ratioP1;P1;durP2;ratioP2;P2;SDS_P1;SDS_P2;PMS_P1;PMS_P2;Temp;Humidity;BMP_temperature;BMP_pressure;BME280_temperature;BME280_humidity;BME280_pressure;Samples;Min_cycle;Max_cycle;Signal;HPM_P1;HPM_P2
2024/02/29 00:00:12;;;;;;;11.57;8.50;;;;;;;6.40;67.18;93881.94;521598;28;868;-68
2024/02/29 00:00:27;;;;;;;12.40;8.80;;;;;;;6.38;67.37;93889.19;521634;28;904;-68
2024/02/29 00:00:43;;;;;;;13.10;9.13;;;;;;;6.37;67.20;93891.19;521565;28;855;-68
2024/02/29 00:00:58;;;;;;;12.13;9.30;;;;;;;6.35;67.21;93890.97;521463;28;857;-68
2024/02/29 00:01:13;;;;;;;10.80;9.07;;;;;;;6.36;67.03;93883.47;521627;28;782;-68
2024/02/29 00:01:29;;;;;;;10.47;9.23;;;;;;;6.36;67.19;93886.97;521561;28;825;-68
2024/02/29 00:01:44;;;;;;;11.83;9.33;;;;;;;6.36;67.15;93891.72;521606;28;775;-68
2024/02/29 00:02:00;;;;;;;12.43;9.25;;;;;;;6.36;67.20;93889.72;521598;28;903;-68
2024/02/29 00:02:16;;;;;;;11.13;8.73;;;;;;;6.38;67.09;93886.47;521417;28;798;-68
2024/02/29 00:02:31;;;;;;;11.40;9.10;;;;;;;6.39;67.11;93891.41;521644;28;1105;-69
2024/02/29 00:02:47;;;;;;;12.75;9.50;;;;;;;6.40;66.97;93892.16;521625;28;818;-68
2024/02/29 00:03:02;;;;;;;12.13;9.20;;;;;;;6.40;66.99;93887.44;521559;28;867;-68
2024/02/29 00:03:18;;;;;;;12.30;9.35;;;;;;;6.41;67.12;93882.69;521569;28;864;-68
2024/02/29 00:03:33;;;;;;;13.53;9.33;;;;;;;6.43;66.96;93891.16;521540;28;750;-68
2024/02/29 00:03:49;;;;;;;13.57;9.95;;;;;;;6.41;66.90;93888.19;521566;28;860;-68
2024/02/29 00:04:04;;;;;;;12.67;10.07;;;;;;;6.43;66.57;93888.41;521565;28;858;-68
2024/02/29 00:04:20;;;;;;;14.48;9.50;;;;;;;6.41;66.77;93883.44;521574;28;786;-68
2024/02/29 00:04:35;;;;;;;14.33;9.50;;;;;;;6.41;66.63;93894.41;521572;28;856;-68
2024/02/29 00:04:50;;;;;;;11.63;9.60;;;;;;;6.42;66.94;93897.88;521549;28;809;-68
2024/02/29 00:05:07;;;;;;;11.65;9.35;;;;;;;6.42;66.82;93893.16;521454;28;877;-68
2024/02/29 00:05:22;;;;;;;12.55;9.15;;;;;;;6.40;66.58;93890.19;521466;28;1918;-68
2024/02/29 00:05:38;;;;;;;14.68;9.68;;;;;;;6.37;66.86;93895.91;521621;28;806;-68
2024/02/29 00:05:54;;;;;;;13.93;9.70;;;;;;;6.35;66.81;93890.97;521511;28;861;-68
2024/02/29 00:06:09;;;;;;;13.93;9.82;;;;;;;6.32;66.90;93891.25;521660;28;861;-68
2024/02/29 00:06:24;;;;;;;14.93;10.27;;;;;;;6.28;67.04;93891.50;521467;28;1027;-68
2024/02/29 00:06:40;;;;;;;12.73;10.02;;;;;;;6.26;67.41;93893.28;521655;28;805;-68
2024/02/29 00:06:56;;;;;;;11.77;9.68;;;;;;;6.24;67.46;93888.31;521433;28;865;-68
2024/02/29 00:07:11;;;;;;;11.73;9.40;;;;;;;6.25;67.50;93887.06;521542;28;892;-68
2024/02/29 00:07:27;;;;;;;12.77;9.73;;;;;;;6.25;67.60;93892.53;521548;28;881;-68
2024/02/29 00:07:42;;;;;;;15.17;10.60;;;;;;;6.27;67.65;93895.50;521638;28;794;-68
2024/02/29 00:07:58;;;;;;;15.05;10.75;;;;;;;6.28;67.67;93891.50;521420;28;813;-68
2024/02/29 00:08:13;;;;;;;13.40;9.93;;;;;;;6.29;67.73;93895.00;521613;28;767;-68
2024/02/29 00:08:29;;;;;;;14.70;10.25;;;;;;;6.31;67.72;93893.25;521605;28;846;-68
2024/02/29 00:08:44;;;;;;;15.33;10.53;;;;;;;6.33;67.63;93898.19;521501;28;853;-68
2024/02/29 00:09:00;;;;;;;15.35;10.48;;;;;;;6.32;67.86;93894.00;521545;28;766;-68
2024/02/29 00:09:16;;;;;;;15.77;10.83;;;;;;;6.29;68.01;93893.00;519275;28;802;-68
2024/02/29 00:09:31;;;;;;;14.18;10.55;;;;;;;6.26;67.97;93890.56;519373;28;1034;-68
2024/02/29 00:09:47;;;;;;;15.15;10.35;;;;;;;6.26;68.01;93887.81;519327;28;838;-68
2024/02/29 00:10:03;;;;;;;15.13;10.60;;;;;;;6.26;67.98;93890.56;519336;28;800;-68
2024/02/29 00:10:18;;;;;;;15.60;11.00;;;;;;;6.26;67.92;93896.03;519385;28;810;-68
2024/02/29 00:10:34;;;;;;;14.35;10.73;;;;;;;6.26;67.96;93893.28;519257;28;798;-68
2024/02/29 00:10:49;;;;;;;12.93;10.33;;;;;;;6.26;67.71;93896.75;519386;28;802;-68
2024/02/29 00:11:05;;;;;;;12.83;10.13;;;;;;;6.26;68.02;93893.28;519758;28;865;-68
2024/02/29 00:11:21;;;;;;;12.30;9.80;;;;;;;6.25;67.80;93895.28;521569;28;1073;-68
2024/02/29 00:11:36;;;;;;;13.67;10.20;;;;;;;6.22;67.65;93892.78;521504;28;774;-68
2024/02/29 00:11:52;;;;;;;13.30;9.90;;;;;;;6.18;67.72;93897.81;521505;28;868;-68
2024/02/29 00:12:07;;;;;;;12.97;9.73;;;;;;;6.16;67.85;93895.59;521451;28;884;-68
2024/02/29 00:12:23;;;;;;;15.18;10.27;;;;;;;6.17;67.64;93899.09;521484;28;778;-68
2024/02/29 00:12:39;;;;;;;14.20;10.07;;;;;;;6.17;67.85;93901.81;521541;28;801;-68
2024/02/29 00:12:55;;;;;;;12.52;9.50;;;;;;;6.17;67.74;93897.09;521537;28;836;-68
2024/02/29 00:13:11;;;;;;;13.40;9.90;;;;;;;6.18;67.55;93898.56;521604;28;927;-68
2024/02/29 00:13:26;;;;;;;12.90;9.60;;;;;;;6.20;67.48;93898.03;521443;28;1577;-68
2024/02/29 00:13:41;;;;;;;12.20;9.30;;;;;;;6.20;67.43;93898.03;521587;28;805;-68
2024/02/29 00:13:57;;;;;;;11.32;8.75;;;;;;;6.21;67.29;93903.03;521513;28;758;-68
2024/02/29 00:14:12;;;;;;;10.93;8.63;;;;;;;6.20;67.13;93901.53;521629;28;860;-68
2024/02/29 00:14:28;;;;;;;11.90;8.68;;;;;;;6.18;67.35;93897.81;521560;28;738;-68
2024/02/29 00:14:44;;;;;;;12.93;8.57;;;;;;;6.18;67.04;93900.56;521526;28;785;-69
2024/02/29 00:14:59;;;;;;;12.63;8.65;;;;;;;6.15;67.12;93894.09;521522;28;871;-68
2024/02/29 00:15:14;;;;;;;12.60;8.37;;;;;;;6.16;67.09;93900.31;521546;28;888;-68
2024/02/29 00:15:30;;;;;;;12.50;8.20;;;;;;;6.14;67.03;93900.84;521603;28;821;-68
2024/02/29 00:15:45;;;;;;;10.87;8.10;;;;;;;6.10;67.04;93903.88;521559;28;869;-68
2024/02/29 00:16:02;;;;;;;12.88;8.13;;;;;;;6.05;67.04;93904.63;521553;28;868;-68
2024/02/29 00:16:18;;;;;;;13.35;8.57;;;;;;;6.03;67.33;93909.13;521475;28;829;-68
2024/02/29 00:16:34;;;;;;;12.27;9.20;;;;;;;5.98;67.51;93901.69;521579;28;825;-68
2024/02/29 00:16:50;;;;;;;11.73;8.90;;;;;;;5.92;67.16;93903.72;521533;28;878;-68
2024/02/29 00:17:05;;;;;;;13.57;9.13;;;;;;;5.85;67.32;93902.25;521557;28;773;-68
2024/02/29 00:17:21;;;;;;;15.15;9.57;;;;;;;5.86;67.48;93906.50;521576;28;817;-69
2024/02/29 00:17:36;;;;;;;15.97;10.10;;;;;;;5.85;67.80;93905.00;521480;28;1279;-68
2024/02/29 00:17:52;;;;;;;15.65;10.57;;;;;;;5.82;67.81;93895.03;521484;28;861;-68
2024/02/29 00:18:07;;;;;;;13.17;9.60;;;;;;;5.77;68.21;93909.50;521508;28;1112;-68
2024/02/29 00:18:23;;;;;;;14.07;9.80;;;;;;;5.69;68.79;93896.84;521563;28;769;-68
2024/02/29 00:18:38;;;;;;;14.83;10.60;;;;;;;5.62;69.00;93900.88;521557;28;777;-68
2024/02/29 00:18:54;;;;;;;14.52;10.30;;;;;;;5.56;69.06;93900.16;521355;28;916;-68
2024/02/29 00:19:09;;;;;;;15.37;9.93;;;;;;;5.51;69.21;93903.66;521606;28;1081;-68
2024/02/29 00:19:25;;;;;;;15.20;9.90;;;;;;;5.52;69.44;93896.94;521498;28;849;-68
2024/02/29 00:19:40;;;;;;;13.90;9.80;;;;;;;5.53;69.38;93894.94;521578;28;777;-68
2024/02/29 00:19:56;;;;;;;13.35;9.85;;;;;;;5.53;69.73;93895.69;521484;28;926;-68
2024/02/29 00:20:11;;;;;;;13.20;10.27;;;;;;;5.33;69.65;93869.38;521543;28;762;-68
2024/02/29 00:20:27;;;;;;;14.30;10.25;;;;;;;5.53;69.63;93892.94;521504;28;793;-68
2024/02/29 00:20:42;;;;;;;15.23;10.40;;;;;;;5.53;69.40;93892.94;521593;28;786;-68
2024/02/29 00:20:58;;;;;;;14.68;11.07;;;;;;;5.55;69.42;93898.66;521463;28;876;-68
2024/02/29 00:21:13;;;;;;;14.93;11.80;;;;;;;5.57;69.49;93901.63;521590;28;750;-68
2024/02/29 00:21:29;;;;;;;16.10;11.40;;;;;;;5.60;69.63;93894.41;521571;28;861;-68
2024/02/29 00:21:46;;;;;;;16.33;11.43;;;;;;;5.63;69.26;93899.59;521375;28;931;-68
2024/02/29 00:22:01;;;;;;;16.70;11.65;;;;;;;5.66;68.94;93897.84;521507;28;896;-68
2024/02/29 00:22:17;;;;;;;16.08;10.80;;;;;;;5.69;69.32;93899.59;521501;28;880;-68
2024/02/29 00:22:32;;;;;;;14.30;10.27;;;;;;;5.69;69.20;93894.13;521517;28;825;-68
2024/02/29 00:22:47;;;;;;;14.00;10.10;;;;;;;5.68;68.84;93896.09;521473;28;761;-68
2024/02/29 00:23:03;;;;;;;14.15;9.57;;;;;;;5.70;68.58;93901.81;521439;28;837;-68
2024/02/29 00:23:18;;;;;;;14.60;9.63;;;;;;;5.73;68.66;93900.06;521556;28;814;-68
2024/02/29 00:23:34;;;;;;;17.40;10.27;;;;;;;5.74;68.61;93896.81;521585;28;821;-68
2024/02/29 00:23:50;;;;;;;16.53;10.73;;;;;;;5.76;68.38;93897.06;521469;28;793;-68
2024/02/29 00:24:05;;;;;;;14.77;10.98;;;;;;;5.71;68.43;93895.09;521582;28;923;-68
2024/02/29 00:24:20;;;;;;;15.07;10.60;;;;;;;5.80;68.26;93900.28;521523;28;843;-68
2024/02/29 00:24:36;;;;;;;13.98;10.35;;;;;;;5.81;68.41;93898.28;521482;28;865;-68
2024/02/29 00:24:51;;;;;;;14.20;10.27;;;;;;;5.82;68.54;93891.56;521518;28;853;-68
2024/02/29 00:25:07;;;;;;;15.40;10.82;;;;;;;5.81;68.35;93901.00;521458;28;849;-68
2024/02/29 00:25:23;;;;;;;15.73;11.20;;;;;;;5.80;68.37;93892.06;521493;28;1910;-68
2024/02/29 00:25:40;;;;;;;17.13;10.90;;;;;;;5.80;68.66;93897.56;521595;28;738;-68
2024/02/29 00:25:55;;;;;;;16.67;11.25;;;;;;;5.81;68.87;93896.28;521398;28;832;-68
2024/02/29 00:26:14;;;;;;;14.27;11.60;;;;;;;5.81;68.56;93899.03;521626;28;810;-68
2024/02/29 00:26:30;;;;;;;14.48;11.80;;;;;;;5.83;68.80;93899.25;521514;28;838;-68
2024/02/29 00:26:45;;;;;;;16.75;12.27;;;;;;;5.84;68.49;93891.81;521472;28;777;-68
2024/02/29 00:27:01;;;;;;;15.68;11.38;;;;;;;5.81;69.08;93887.31;521536;28;786;-68
2024/02/29 00:27:17;;;;;;;17.07;11.03;;;;;;;5.59;68.68;93855.31;521439;28;877;-68
2024/02/29 00:27:32;;;;;;;18.83;12.00;;;;;;;5.85;68.80;93902.25;521481;28;869;-68
2024/02/29 00:27:48;;;;;;;15.97;12.13;;;;;;;5.87;68.70;93897.03;521485;28;825;-68
2024/02/29 00:28:03;;;;;;;18.45;12.43;;;;;;;5.86;68.94;93890.06;521543;28;803;-68
2024/02/29 00:28:19;;;;;;;20.83;12.77;;;;;;;5.87;68.76;93891.53;521493;28;870;-68
2024/02/29 00:28:34;;;;;;;20.30;13.27;;;;;;;5.87;68.71;93897.03;521357;28;746;-68
2024/02/29 00:28:50;;;;;;;20.23;13.30;;;;;;;5.88;69.03;93895.03;521479;28;804;-68
2024/02/29 00:29:07;;;;;;;16.35;12.23;;;;;;;5.89;69.17;93894.50;521482;28;813;-69
2024/02/29 00:29:27;;;;;;;17.00;12.95;;;;;;;5.92;68.83;93898.25;521595;28;893;-68
2024/02/29 00:29:43;;;;;;;19.67;13.15;;;;;;;5.93;68.93;93894.97;521590;28;853;-68
2024/02/29 00:29:58;;;;;;;22.42;12.77;;;;;;;5.95;68.97;93891.75;521401;28;873;-68
2024/02/29 00:30:16;;;;;;;22.33;13.63;;;;;;;5.95;68.64;93891.75;521555;28;821;-68
2024/02/29 00:30:32;;;;;;;20.05;14.18;;;;;;;5.97;68.64;93892.00;521513;28;1017;-68
2024/02/29 00:30:47;;;;;;;22.60;14.50;;;;;;;5.97;68.91;93892.75;521501;28;833;-68
2024/02/29 00:31:03;;;;;;;22.47;14.53;;;;;;;5.98;68.79;93888.72;521512;28;777;-68
2024/02/29 00:31:18;;;;;;;22.13;14.57;;;;;;;6.00;69.16;93896.44;521442;28;766;-68
2024/02/29 00:31:34;;;;;;;21.85;13.82;;;;;;;6.00;69.17;93891.72;521574;28;813;-68
2024/02/29 00:31:50;;;;;;;22.30;13.53;;;;;;;6.01;69.08;93901.44;521442;28;774;-68
2024/02/29 00:32:07;;;;;;;21.50;13.93;;;;;;;6.02;68.56;93891.94;521467;28;857;-68
2024/02/29 00:32:23;;;;;;;20.77;14.57;;;;;;;6.03;68.88;93893.44;521486;28;821;-68
2024/02/29 00:32:38;;;;;;;20.83;14.53;;;;;;;6.03;68.73;93893.44;521518;28;853;-68
2024/02/29 00:32:55;;;;;;;21.40;14.05;;;;;;;6.04;68.58;93888.72;521407;28;853;-68
2024/02/29 00:33:10;;;;;;;21.38;13.43;;;;;;;6.03;68.25;93893.44;521554;28;935;-68
2024/02/29 00:33:26;;;;;;;21.73;13.00;;;;;;;5.99;68.27;93898.47;521501;28;889;-68
2024/02/29 00:33:41;;;;;;;20.77;12.70;;;;;;;5.97;68.49;93892.75;521568;28;865;-68
2024/02/29 00:33:57;;;;;;;19.30;12.77;;;;;;;5.97;68.76;93894.72;521458;28;801;-68
2024/02/29 00:34:12;;;;;;;19.52;13.15;;;;;;;5.69;68.54;93862.00;521479;28;888;-68
2024/02/29 00:34:28;;;;;;;19.57;13.60;;;;;;;5.96;68.57;93893.97;521446;28;798;-68
2024/02/29 00:34:43;;;;;;;20.50;13.23;;;;;;;5.93;68.77;93894.97;521618;28;917;-68
2024/02/29 00:34:59;;;;;;;18.40;12.30;;;;;;;5.92;68.45;93892.75;521483;28;770;-68
2024/02/29 00:35:14;;;;;;;16.25;11.48;;;;;;;5.88;68.42;93898.53;521483;28;869;-68
2024/02/29 00:35:31;;;;;;;14.27;10.27;;;;;;;5.85;68.30;93894.03;521456;28;802;-68
2024/02/29 00:35:47;;;;;;;11.45;9.32;;;;;;;5.86;68.17;93894.78;521500;28;888;-68
2024/02/29 00:36:02;;;;;;;12.27;8.65;;;;;;;5.86;68.24;93892.06;521458;28;876;-68
2024/02/29 00:36:17;;;;;;;13.77;8.90;;;;;;;5.87;67.97;93891.53;521468;28;884;-68
2024/02/29 00:36:33;;;;;;;14.57;9.77;;;;;;;5.89;67.96;93888.31;519315;28;865;-68
2024/02/29 00:36:48;;;;;;;15.13;9.93;;;;;;;5.91;68.06;93891.28;519226;28;766;-68
2024/02/29 00:37:04;;;;;;;13.32;9.60;;;;;;;5.93;67.94;93891.53;519332;28;794;-68
2024/02/29 00:37:19;;;;;;;14.70;9.80;;;;;;;5.95;68.05;93892.50;519346;28;766;-68
2024/02/29 00:37:35;;;;;;;16.13;9.90;;;;;;;5.96;67.82;93896.72;519243;28;881;-68
2024/02/29 00:37:50;;;;;;;13.95;9.60;;;;;;;5.96;67.83;93893.97;519314;28;844;-68
2024/02/29 00:38:06;;;;;;;12.53;9.77;;;;;;;5.99;67.24;93882.00;519306;28;782;-68
2024/02/29 00:38:21;;;;;;;13.07;9.73;;;;;;;6.00;67.13;93888.22;519611;28;802;-68
2024/02/29 00:38:38;;;;;;;13.10;9.13;;;;;;;6.03;67.32;93884.47;521502;28;857;-68
2024/02/29 00:38:55;;;;;;;14.20;9.07;;;;;;;6.03;67.16;93885.22;521435;28;814;-68
2024/02/29 00:39:10;;;;;;;13.45;9.00;;;;;;;6.03;67.00;93890.69;521584;28;817;-68
2024/02/29 00:39:26;;;;;;;13.40;9.18;;;;;;;6.05;66.74;93887.44;521514;28;853;-68
2024/02/29 00:39:41;;;;;;;13.67;9.03;;;;;;;6.06;66.47;93886.19;521550;28;774;-68
2024/02/29 00:39:58;;;;;;;11.55;8.68;;;;;;;6.06;66.40;93889.66;521403;28;872;-68
2024/02/29 00:40:14;;;;;;;11.20;8.57;;;;;;;6.04;66.83;93892.16;521562;28;805;-68
2024/02/29 00:40:30;;;;;;;11.73;8.80;;;;;;;6.01;66.67;93893.22;521530;28;861;-68
2024/02/29 00:40:45;;;;;;;11.33;8.93;;;;;;;6.00;66.47;93888.22;521497;28;908;-68
2024/02/29 00:41:01;;;;;;;11.20;8.93;;;;;;;5.99;66.69;93887.50;521415;28;762;-68
2024/02/29 00:41:16;;;;;;;10.90;8.70;;;;;;;5.99;66.90;93895.72;521563;28;1008;-68
2024/02/29 00:41:32;;;;;;;10.87;8.70;;;;;;;5.99;66.71;93894.97;521508;28;920;-68
2024/02/29 00:41:48;;;;;;;14.00;9.90;;;;;;;6.00;66.68;93891.72;521526;28;837;-68
2024/02/29 00:42:03;;;;;;;18.63;11.02;;;;;;;5.99;66.70;93890.22;521500;28;860;-68
2024/02/29 00:42:18;;;;;;;18.80;11.50;;;;;;;5.98;67.17;93890.72;521474;28;782;-68
2024/02/29 00:42:34;;;;;;;18.48;12.32;;;;;;;5.95;67.01;93891.75;521412;28;877;-68
2024/02/29 00:42:50;;;;;;;17.05;12.13;;;;;;;5.94;67.11;93895.72;521444;28;814;-68
2024/02/29 00:43:05;;;;;;;15.70;12.03;;;;;;;5.93;67.37;93899.75;521502;28;790;-68
2024/02/29 00:43:21;;;;;;;16.50;12.65;;;;;;;5.94;67.17;93891.00;521539;28;1079;-68
2024/02/29 00:43:36;;;;;;;15.73;12.20;;;;;;;5.93;67.09;93899.75;521496;28;766;-68
2024/02/29 00:43:51;;;;;;;16.03;11.33;;;;;;;5.91;67.39;93894.03;521382;28;849;-68
2024/02/29 00:44:07;;;;;;;16.35;10.65;;;;;;;5.87;67.21;93899.75;521466;28;834;-68
2024/02/29 00:44:22;;;;;;;15.53;10.27;;;;;;;5.84;67.32;93895.31;520225;28;1131;-68
2024/02/29 00:44:38;;;;;;;15.25;10.73;;;;;;;5.82;67.02;93899.78;519490;28;816;-68
2024/02/29 00:44:53;;;;;;;14.67;11.00;;;;;;;5.82;67.04;93900.53;519472;28;793;-68
2024/02/29 00:45:11;;;;;;;14.80;10.52;;;;;;;5.81;67.36;93899.03;519358;28;1008;-68
2024/02/29 00:45:27;;;;;;;14.23;10.35;;;;;;;5.85;67.39;93904.25;519363;28;2045;-68
2024/02/29 00:45:42;;;;;;;14.98;11.10;;;;;;;5.86;66.99;93903.00;519498;28;830;-68
2024/02/29 00:45:58;;;;;;;16.20;11.40;;;;;;;5.82;66.87;93897.78;519345;28;853;-68
2024/02/29 00:46:13;;;;;;;16.10;10.83;;;;;;;5.76;67.33;93899.78;519485;28;820;-68
2024/02/29 00:46:29;;;;;;;14.95;10.50;;;;;;;5.76;67.12;93902.53;519415;28;849;-68
2024/02/29 00:46:44;;;;;;;13.60;9.87;;;;;;;5.76;67.33;93896.31;519473;28;802;-68
2024/02/29 00:47:00;;;;;;;12.80;10.25;;;;;;;5.77;67.44;93904.03;519415;28;813;-68
2024/02/29 00:47:15;;;;;;;14.10;10.77;;;;;;;5.79;67.56;93907.00;520048;28;1207;-68
2024/02/29 00:47:31;;;;;;;14.97;10.00;;;;;;;5.79;67.33;93904.28;521507;28;856;-68
2024/02/29 00:47:46;;;;;;;12.88;9.15;;;;;;;5.80;67.49;93903.03;521476;28;869;-68
2024/02/29 00:48:01;;;;;;;12.50;9.20;;;;;;;5.82;67.59;93900.53;521429;28;841;-68
2024/02/29 00:48:17;;;;;;;13.05;9.35;;;;;;;5.85;67.32;93904.25;521519;28;817;-68
2024/02/29 00:48:33;;;;;;;12.40;9.67;;;;;;;5.82;67.87;93900.53;521534;28;762;-68
2024/02/29 00:48:48;;;;;;;13.77;10.43;;;;;;;5.78;67.75;93902.75;521303;28;1826;-68
2024/02/29 00:49:03;;;;;;;15.93;10.80;;;;;;;5.54;67.78;93880.00;521486;28;1059;-68
2024/02/29 00:49:19;;;;;;;15.40;10.82;;;;;;;5.66;67.95;93903.34;521452;28;877;-68
2024/02/29 00:49:35;;;;;;;14.40;10.03;;;;;;;5.59;67.84;93910.09;521485;28;822;-68
2024/02/29 00:49:50;;;;;;;14.10;9.68;;;;;;;5.57;67.98;93898.16;519349;28;918;-68
2024/02/29 00:50:07;;;;;;;13.80;9.83;;;;;;;5.56;67.95;93905.63;519252;28;936;-68
2024/02/29 00:50:22;;;;;;;15.73;10.05;;;;;;;5.58;68.13;93894.16;519427;28;861;-68
2024/02/29 00:50:38;;;;;;;14.83;9.70;;;;;;;5.57;68.25;93903.63;519268;28;776;-68
2024/02/29 00:50:53;;;;;;;12.45;8.68;;;;;;;5.56;68.42;93900.16;519232;28;805;-68
2024/02/29 00:51:08;;;;;;;11.97;8.60;;;;;;;5.58;67.93;93905.88;519348;28;747;-68
2024/02/29 00:51:24;;;;;;;12.38;9.27;;;;;;;5.59;68.13;93910.09;519333;28;830;-68
2024/02/29 00:51:39;;;;;;;12.20;9.70;;;;;;;5.61;68.00;93904.13;519829;28;920;-68
2024/02/29 00:51:55;;;;;;;11.15;9.43;;;;;;;5.63;67.51;93904.38;521472;28;844;-68
2024/02/29 00:52:10;;;;;;;14.43;9.43;;;;;;;5.65;67.60;93908.06;521549;28;798;-68
2024/02/29 00:52:25;;;;;;;15.63;9.53;;;;;;;5.64;67.66;93908.56;521520;28;830;-68
2024/02/29 00:52:41;;;;;;;13.30;9.55;;;;;;;5.64;67.33;93906.59;521484;28;774;-68
2024/02/29 00:52:56;;;;;;;12.63;9.40;;;;;;;5.61;67.53;93896.63;521415;28;877;-68
2024/02/29 00:53:12;;;;;;;13.18;9.57;;;;;;;5.66;67.33;93904.09;521568;28;751;-68
2024/02/29 00:53:28;;;;;;;13.00;10.00;;;;;;;5.68;67.27;93907.06;521408;28;849;-68
2024/02/29 00:53:43;;;;;;;13.07;9.83;;;;;;;5.68;67.35;93906.31;521556;28;797;-68
2024/02/29 00:53:58;;;;;;;13.37;9.77;;;;;;;5.63;67.51;93904.38;521478;28;801;-68
2024/02/29 00:54:14;;;;;;;13.02;9.85;;;;;;;5.54;68.04;93904.66;521546;28;858;-68
2024/02/29 00:54:29;;;;;;;13.33;9.60;;;;;;;5.47;68.27;93905.16;521537;28;873;-68
2024/02/29 00:54:45;;;;;;;13.82;9.23;;;;;;;5.37;68.36;93904.72;521482;28;739;-68
2024/02/29 00:55:02;;;;;;;13.73;9.43;;;;;;;5.35;68.74;93899.00;521441;28;746;-68
2024/02/29 00:55:17;;;;;;;13.10;9.48;;;;;;;5.36;68.82;93897.75;521446;28;936;-68
2024/02/29 00:55:33;;;;;;;12.53;9.17;;;;;;;5.35;68.72;93899.75;521594;28;1088;-68
2024/02/29 00:55:48;;;;;;;13.13;9.48;;;;;;;5.10;68.57;93865.25;521474;28;833;-68
2024/02/29 00:56:04;;;;;;;13.13;9.82;;;;;;;5.36;68.81;93901.25;521491;28;894;-68
2024/02/29 00:56:20;;;;;;;13.60;9.73;;;;;;;5.35;68.74;93902.47;521509;28;840;-68
2024/02/29 00:56:35;;;;;;;14.27;9.50;;;;;;;5.32;68.61;93906.25;521444;28;762;-68
2024/02/29 00:56:51;;;;;;;12.67;9.50;;;;;;;5.30;68.53;93897.03;521451;28;861;-68
2024/02/29 00:57:06;;;;;;;11.88;9.60;;;;;;;5.27;68.97;93903.50;521410;28;897;-68
2024/02/29 00:57:22;;;;;;;12.32;9.93;;;;;;;5.26;68.86;93902.03;521553;28;849;-68
2024/02/29 00:57:38;;;;;;;13.03;9.83;;;;;;;5.27;69.05;93903.50;521387;28;920;-68
2024/02/29 00:57:53;;;;;;;12.93;9.27;;;;;;;5.26;69.57;93904.78;521420;28;829;-68
2024/02/29 00:58:09;;;;;;;12.30;8.97;;;;;;;5.28;69.49;93910.47;521518;28;904;-68
2024/02/29 00:58:24;;;;;;;11.40;9.18;;;;;;;5.29;68.97;93909.22;521469;28;846;-68
2024/02/29 00:58:40;;;;;;;10.80;9.15;;;;;;;5.32;68.77;93908.97;521517;28;856;-68
2024/02/29 00:58:55;;;;;;;13.13;9.47;;;;;;;5.34;69.37;93903.00;521462;28;775;-68
2024/02/29 00:59:11;;;;;;;14.07;9.40;;;;;;;5.33;69.17;93904.22;521452;28;861;-68
2024/02/29 00:59:26;;;;;;;12.80;9.90;;;;;;;5.35;69.07;93905.22;521460;28;739;-68
2024/02/29 00:59:42;;;;;;;16.50;11.90;;;;;;;5.36;69.34;93905.97;521548;28;912;-68
2024/02/29 00:59:57;;;;;;;17.45;11.73;;;;;;;5.38;69.06;93901.47;521430;28;845;-68
2024/02/29 01:00:13;;;;;;;14.63;10.47;;;;;;;5.40;69.26;93909.19;521534;28;853;-68
2024/02/29 01:00:28;;;;;;;13.68;10.38;;;;;;;5.43;69.07;93910.16;521326;28;759;-68
2024/02/29 01:00:44;;;;;;;14.27;10.80;;;;;;;5.42;69.12;93906.69;521573;28;845;-68
2024/02/29 01:01:00;;;;;;;15.13;10.88;;;;;;;5.44;68.95;93909.66;521414;28;786;-68
2024/02/29 01:01:16;;;;;;;14.73;11.23;;;;;;;5.38;68.88;93906.19;521364;28;938;-68
2024/02/29 01:01:31;;;;;;;13.38;11.02;;;;;;;5.45;69.39;93902.19;521434;28;829;-68
2024/02/29 01:01:46;;;;;;;12.70;10.03;;;;;;;5.43;69.15;93910.94;521464;28;794;-68
2024/02/29 01:02:03;;;;;;;13.07;9.55;;;;;;;5.38;69.47;93909.69;521447;28;837;-68
2024/02/29 01:02:18;;;;;;;12.43;9.68;;;;;;;5.36;70.15;93908.69;521537;28;1062;-68
2024/02/29 01:02:34;;;;;;;14.27;9.82;;;;;;;5.32;69.91;93908.22;521521;28;782;-68
2024/02/29 01:02:49;;;;;;;14.23;9.23;;;;;;;5.30;69.99;93908.75;521378;28;762;-68
2024/02/29 01:03:05;;;;;;;11.75;8.35;;;;;;;5.29;70.52;93904.50;521452;28;959;-68
2024/02/29 01:03:20;;;;;;;10.67;8.10;;;;;;;5.32;70.34;93908.97;521467;28;865;-68
2024/02/29 01:03:36;;;;;;;9.70;7.88;;;;;;;5.32;70.06;93910.97;521439;28;817;-68
2024/02/29 01:03:51;;;;;;;9.87;7.87;;;;;;;5.32;70.31;93908.22;521474;28;849;-68
2024/02/29 01:04:06;;;;;;;12.30;8.67;;;;;;;5.34;70.58;93905.72;521450;28;747;-68
2024/02/29 01:04:22;;;;;;;14.40;9.60;;;;;;;5.34;70.59;93903.00;521479;28;793;-68
2024/02/29 01:04:37;;;;;;;13.53;9.50;;;;;;;5.33;70.39;93910.44;521401;28;1082;-68
2024/02/29 01:04:53;;;;;;;11.68;8.55;;;;;;;5.36;70.19;93914.94;521501;28;815;-68
2024/02/29 01:05:10;;;;;;;10.53;8.07;;;;;;;5.36;70.53;93909.47;521486;28;770;-68
2024/02/29 01:05:25;;;;;;;9.30;7.78;;;;;;;5.36;70.34;93916.91;521354;28;1989;-68
2024/02/29 01:05:41;;;;;;;10.23;7.53;;;;;;;5.36;70.60;93911.44;521505;28;865;-70
2024/02/29 01:05:56;;;;;;;11.43;7.95;;;;;;;5.35;70.65;93920.88;521357;28;837;-68
2024/02/29 01:06:11;;;;;;;10.63;8.07;;;;;;;5.34;70.92;93917.44;521505;28;846;-68
2024/02/29 01:06:27;;;;;;;10.50;7.68;;;;;;;5.37;70.65;93915.69;521459;28;876;-68
2024/02/29 01:06:42;;;;;;;10.93;8.13;;;;;;;5.38;70.76;93914.41;521496;28;887;-68
2024/02/29 01:06:58;;;;;;;10.52;8.45;;;;;;;5.41;70.79;93918.16;521404;28;805;-68
2024/02/29 01:07:13;;;;;;;10.40;8.47;;;;;;;5.42;70.55;93911.41;521515;28;766;-68
2024/02/29 01:07:29;;;;;;;11.30;8.80;;;;;;;5.40;71.03;93911.91;521425;28;774;-68
2024/02/29 01:07:44;;;;;;;12.55;8.77;;;;;;;5.22;71.12;93893.31;521460;28;896;-68
2024/02/29 01:07:59;;;;;;;12.53;8.97;;;;;;;5.24;71.56;93923.69;521377;28;796;-68
2024/02/29 01:08:15;;;;;;;11.50;8.82;;;;;;;5.19;71.75;93916.22;521480;28;928;-68
2024/02/29 01:08:30;;;;;;;11.07;8.17;;;;;;;5.18;71.60;93914.72;521464;28;754;-68
2024/02/29 01:08:46;;;;;;;10.18;8.38;;;;;;;5.20;71.63;93923.19;521353;28;1016;-68
2024/02/29 01:09:01;;;;;;;10.33;8.90;;;;;;;5.19;71.76;93916.97;521430;28;828;-68
2024/02/29 01:09:17;;;;;;;10.88;8.38;;;;;;;5.20;71.44;93915.72;521478;28;849;-68
2024/02/29 01:09:33;;;;;;;11.07;8.27;;;;;;;5.24;71.95;93912.75;521434;28;864;-68
2024/02/29 01:09:49;;;;;;;10.13;8.53;;;;;;;5.25;71.92;93911.47;521406;28;849;-68
2024/02/29 01:10:06;;;;;;;12.75;9.32;;;;;;;5.27;71.84;93920.69;521424;28;786;-68
2024/02/29 01:10:22;;;;;;;13.63;10.27;;;;;;;5.29;71.79;93917.44;521544;28;876;-68
2024/02/29 01:10:38;;;;;;;15.57;10.77;;;;;;;5.28;71.71;93919.41;521476;28;873;-68
2024/02/29 01:10:54;;;;;;;15.25;10.10;;;;;;;5.30;71.41;93916.19;521465;28;837;-70
2024/02/29 01:11:09;;;;;;;13.43;9.50;;;;;;;5.31;71.24;93918.44;521507;28;810;-68
2024/02/29 01:11:25;;;;;;;13.07;9.40;;;;;;;5.33;71.56;93918.66;521397;28;786;-68
2024/02/29 01:11:40;;;;;;;13.10;9.33;;;;;;;5.36;71.34;93919.66;521493;28;745;-68
2024/02/29 01:11:56;;;;;;;12.07;9.25;;;;;;;5.38;71.24;93917.16;521378;28;824;-68
2024/02/29 01:12:11;;;;;;;11.23;9.33;;;;;;;5.41;71.17;93918.16;521515;28;793;-68
2024/02/29 01:12:27;;;;;;;11.57;9.17;;;;;;;5.42;70.87;93920.38;521413;28;844;-68
2024/02/29 01:12:42;;;;;;;12.18;9.13;;;;;;;5.44;71.19;93917.88;521516;28;920;-68
2024/02/29 01:12:58;;;;;;;12.83;9.23;;;;;;;5.43;70.99;93923.88;521215;28;1102;-68
2024/02/29 01:13:13;;;;;;;12.50;9.23;;;;;;;5.43;70.74;93924.63;521526;28;997;-68
2024/02/29 01:13:30;;;;;;;11.97;9.17;;;;;;;5.43;71.02;93918.38;521429;28;845;-68
2024/02/29 01:13:45;;;;;;;12.95;9.98;;;;;;;5.44;71.11;93922.59;521505;28;825;-68
2024/02/29 01:14:03;;;;;;;14.68;10.35;;;;;;;5.39;71.27;93916.66;521468;28;790;-68
2024/02/29 01:14:18;;;;;;;15.32;10.55;;;;;;;5.20;71.07;93898.53;521429;28;845;-68
2024/02/29 01:14:34;;;;;;;13.02;10.13;;;;;;;5.30;71.33;93921.69;521497;28;869;-68
2024/02/29 01:14:50;;;;;;;11.30;9.37;;;;;;;5.27;72.15;93930.88;521376;28;873;-68
2024/02/29 01:15:07;;;;;;;11.68;9.18;;;;;;;5.23;71.78;93919.44;521410;28;861;-68
2024/02/29 01:15:22;;;;;;;13.18;9.65;;;;;;;5.25;72.14;93925.16;521511;28;834;-68
2024/02/29 01:15:38;;;;;;;11.95;9.43;;;;;;;5.14;71.81;93906.03;521312;28;882;-68
2024/02/29 01:15:54;;;;;;;11.83;9.43;;;;;;;5.29;71.87;93922.91;521364;28;809;-68